sensor_id;sensor_type;location;lat;lon;timestamp;P1;durP1;ratioP1;P2;durP2;ratioP2
75135;SDS011;63707;52.212;9.540;2023-05-10T00:00:50;8.30;;;3.17;;
75135;SDS011;63707;52.212;9.540;2023-05-10T00:03:15;6.53;;;2.85;;
75135;SDS011;63707;52.212;9.540;2023-05-10T00:05:41;7.15;;;2.78;;
75135;SDS011;63707;52.212;9.540;2023-05-10T00:08:06;7.57;;;2.70;;
75135;SDS011;63707;52.212;9.540;2023-05-10T00:10:33;6.32;;;3.13;;
75135;SDS011;63707;52.212;9.540;2023-05-10T00:12:59;6.68;;;3.00;;
75135;SDS011;63707;52.212;9.540;2023-05-10T00:15:25;6.85;;;3.10;;
75135;SDS011;63707;52.212;9.540;2023-05-10T00:17:50;5.95;;;2.75;;
75135;SDS011;63707;52.212;9.540;2023-05-10T00:20:16;7.55;;;3.00;;
75135;SDS011;63707;52.212;9.540;2023-05-10T00:22:41;7.13;;;3.17;;
75135;SDS011;63707;52.212;9.540;2023-05-10T00:25:07;8.48;;;2.95;;
75135;SDS011;63707;52.212;9.540;2023-05-10T00:27:35;6.28;;;3.00;;
75135;SDS011;63707;52.212;9.540;2023-05-10T00:30:01;3.70;;;2.83;;
75135;SDS011;63707;52.212;9.540;2023-05-10T00:32:26;6.80;;;2.70;;
75135;SDS011;63707;52.212;9.540;2023-05-10T00:34:52;4.95;;;3.00;;
75135;SDS011;63707;52.212;9.540;2023-05-10T00:37:17;4.22;;;2.40;;
75135;SDS011;63707;52.212;9.540;2023-05-10T00:39:43;4.68;;;2.85;;
75135;SDS011;63707;52.212;9.540;2023-05-10T00:42:08;4.43;;;2.53;;
75135;SDS011;63707;52.212;9.540;2023-05-10T00:44:35;6.07;;;3.05;;
75135;SDS011;63707;52.212;9.540;2023-05-10T00:47:01;6.30;;;2.83;;
75135;SDS011;63707;52.212;9.540;2023-05-10T00:49:27;6.82;;;3.20;;
75135;SDS011;63707;52.212;9.540;2023-05-10T00:51:53;4.95;;;2.78;;
75135;SDS011;63707;52.212;9.540;2023-05-10T00:54:19;9.13;;;2.78;;
75135;SDS011;63707;52.212;9.540;2023-05-10T00:56:45;5.03;;;2.72;;
75135;SDS011;63707;52.212;9.540;2023-05-10T00:59:14;4.85;;;3.22;;
75135;SDS011;63707;52.212;9.540;2023-05-10T01:01:41;7.57;;;3.03;;
75135;SDS011;63707;52.212;9.540;2023-05-10T01:04:06;7.88;;;2.80;;
75135;SDS011;63707;52.212;9.540;2023-05-10T01:06:32;8.40;;;2.95;;
75135;SDS011;63707;52.212;9.540;2023-05-10T01:08:57;8.02;;;3.28;;
75135;SDS011;63707;52.212;9.540;2023-05-10T01:11:23;8.20;;;2.95;;
75135;SDS011;63707;52.212;9.540;2023-05-10T01:13:50;4.30;;;2.65;;
75135;SDS011;63707;52.212;9.540;2023-05-10T01:16:20;5.13;;;2.50;;
75135;SDS011;63707;52.212;9.540;2023-05-10T01:18:47;7.88;;;3.15;;
75135;SDS011;63707;52.212;9.540;2023-05-10T01:21:16;5.45;;;3.00;;
75135;SDS011;63707;52.212;9.540;2023-05-10T01:23:57;6.88;;;2.72;;
75135;SDS011;63707;52.212;9.540;2023-05-10T01:26:40;4.45;;;2.90;;
75135;SDS011;63707;52.212;9.540;2023-05-10T01:29:35;6.03;;;3.33;;
75135;SDS011;63707;52.212;9.540;2023-05-10T01:32:16;6.47;;;2.80;;
75135;SDS011;63707;52.212;9.540;2023-05-10T01:34:53;5.78;;;3.03;;
75135;SDS011;63707;52.212;9.540;2023-05-10T01:37:25;9.60;;;3.35;;
75135;SDS011;63707;52.212;9.540;2023-05-10T01:39:58;4.18;;;3.05;;
75135;SDS011;63707;52.212;9.540;2023-05-10T01:42:29;5.75;;;3.45;;
75135;SDS011;63707;52.212;9.540;2023-05-10T01:45:02;4.25;;;2.97;;
75135;SDS011;63707;52.212;9.540;2023-05-10T01:47:38;5.80;;;3.45;;
75135;SDS011;63707;52.212;9.540;2023-05-10T01:50:08;5.45;;;3.50;;
75135;SDS011;63707;52.212;9.540;2023-05-10T01:52:41;7.82;;;3.13;;
75135;SDS011;63707;52.212;9.540;2023-05-10T01:55:09;4.85;;;3.10;;
75135;SDS011;63707;52.212;9.540;2023-05-10T01:57:39;4.05;;;2.88;;
75135;SDS011;63707;52.212;9.540;2023-05-10T02:00:07;5.22;;;3.03;;
75135;SDS011;63707;52.212;9.540;2023-05-10T02:02:36;6.43;;;3.47;;
75135;SDS011;63707;52.212;9.540;2023-05-10T02:05:05;4.90;;;2.80;;
75135;SDS011;63707;52.212;9.540;2023-05-10T02:07:31;5.53;;;3.17;;
75135;SDS011;63707;52.212;9.540;2023-05-10T02:10:00;4.55;;;2.88;;
75135;SDS011;63707;52.212;9.540;2023-05-10T02:12:27;6.82;;;3.40;;
75135;SDS011;63707;52.212;9.540;2023-05-10T02:14:55;4.85;;;3.40;;
75135;SDS011;63707;52.212;9.540;2023-05-10T02:17:22;9.32;;;3.80;;
75135;SDS011;63707;52.212;9.540;2023-05-10T02:19:51;5.53;;;3.00;;
75135;SDS011;63707;52.212;9.540;2023-05-10T02:22:18;6.53;;;3.83;;
75135;SDS011;63707;52.212;9.540;2023-05-10T02:24:45;6.88;;;3.25;;
75135;SDS011;63707;52.212;9.540;2023-05-10T02:27:12;8.20;;;3.75;;
75135;SDS011;63707;52.212;9.540;2023-05-10T02:29:40;8.30;;;3.45;;
75135;SDS011;63707;52.212;9.540;2023-05-10T02:32:06;4.18;;;3.10;;
75135;SDS011;63707;52.212;9.540;2023-05-10T02:34:34;8.18;;;3.58;;
75135;SDS011;63707;52.212;9.540;2023-05-10T02:37:02;7.28;;;3.35;;
75135;SDS011;63707;52.212;9.540;2023-05-10T02:39:28;6.15;;;3.30;;
75135;SDS011;63707;52.212;9.540;2023-05-10T02:41:56;4.47;;;3.28;;
75135;SDS011;63707;52.212;9.540;2023-05-10T02:44:23;8.70;;;3.67;;
75135;SDS011;63707;52.212;9.540;2023-05-10T02:46:51;5.30;;;3.75;;
75135;SDS011;63707;52.212;9.540;2023-05-10T02:49:17;8.23;;;4.00;;
75135;SDS011;63707;52.212;9.540;2023-05-10T02:51:44;8.88;;;3.38;;
75135;SDS011;63707;52.212;9.540;2023-05-10T02:54:18;8.57;;;3.42;;
75135;SDS011;63707;52.212;9.540;2023-05-10T02:56:47;5.07;;;3.30;;
75135;SDS011;63707;52.212;9.540;2023-05-10T02:59:16;7.15;;;3.80;;
75135;SDS011;63707;52.212;9.540;2023-05-10T03:01:41;8.38;;;3.58;;
75135;SDS011;63707;52.212;9.540;2023-05-10T03:04:07;6.20;;;3.58;;
75135;SDS011;63707;52.212;9.540;2023-05-10T03:06:32;5.72;;;3.33;;
75135;SDS011;63707;52.212;9.540;2023-05-10T03:08:58;7.20;;;3.50;;
75135;SDS011;63707;52.212;9.540;2023-05-10T03:11:31;6.88;;;3.47;;
75135;SDS011;63707;52.212;9.540;2023-05-10T03:14:08;5.22;;;3.40;;
75135;SDS011;63707;52.212;9.540;2023-05-10T03:16:52;6.93;;;3.53;;
75135;SDS011;63707;52.212;9.540;2023-05-10T03:19:26;8.30;;;3.88;;
75135;SDS011;63707;52.212;9.540;2023-05-10T03:21:55;5.38;;;3.50;;
75135;SDS011;63707;52.212;9.540;2023-05-10T03:24:24;7.90;;;4.03;;
75135;SDS011;63707;52.212;9.540;2023-05-10T03:26:54;8.45;;;3.65;;
75135;SDS011;63707;52.212;9.540;2023-05-10T03:29:23;8.88;;;4.05;;
75135;SDS011;63707;52.212;9.540;2023-05-10T03:31:51;7.03;;;3.85;;
75135;SDS011;63707;52.212;9.540;2023-05-10T03:34:16;7.68;;;3.60;;
75135;SDS011;63707;52.212;9.540;2023-05-10T03:36:47;5.45;;;3.90;;
75135;SDS011;63707;52.212;9.540;2023-05-10T03:39:13;6.80;;;3.90;;
75135;SDS011;63707;52.212;9.540;2023-05-10T03:41:38;7.15;;;3.80;;
75135;SDS011;63707;52.212;9.540;2023-05-10T03:44:05;8.20;;;4.03;;
75135;SDS011;63707;52.212;9.540;2023-05-10T03:46:31;8.90;;;4.38;;
75135;SDS011;63707;52.212;9.540;2023-05-10T03:48:56;6.38;;;4.22;;
75135;SDS011;63707;52.212;9.540;2023-05-10T03:51:22;6.20;;;3.83;;
75135;SDS011;63707;52.212;9.540;2023-05-10T03:53:47;5.28;;;3.75;;
75135;SDS011;63707;52.212;9.540;2023-05-10T03:56:13;6.65;;;3.60;;
75135;SDS011;63707;52.212;9.540;2023-05-10T03:58:38;8.32;;;4.50;;
75135;SDS011;63707;52.212;9.540;2023-05-10T04:01:05;12.98;;;4.82;;
75135;SDS011;63707;52.212;9.540;2023-05-10T04:03:30;9.27;;;4.22;;
75135;SDS011;63707;52.212;9.540;2023-05-10T04:05:59;8.05;;;5.00;;
75135;SDS011;63707;52.212;9.540;2023-05-10T04:08:25;10.32;;;5.38;;
75135;SDS011;63707;52.212;9.540;2023-05-10T04:10:51;6.50;;;4.10;;
75135;SDS011;63707;52.212;9.540;2023-05-10T04:13:16;7.32;;;4.40;;
75135;SDS011;63707;52.212;9.540;2023-05-10T04:15:42;7.25;;;5.07;;
75135;SDS011;63707;52.212;9.540;2023-05-10T04:18:10;8.98;;;5.20;;
75135;SDS011;63707;52.212;9.540;2023-05-10T04:20:35;7.03;;;5.03;;
75135;SDS011;63707;52.212;9.540;2023-05-10T04:23:00;7.53;;;5.10;;
75135;SDS011;63707;52.212;9.540;2023-05-10T04:25:26;9.95;;;5.45;;
75135;SDS011;63707;52.212;9.540;2023-05-10T04:27:52;9.30;;;5.72;;
75135;SDS011;63707;52.212;9.540;2023-05-10T04:30:17;11.13;;;6.20;;
75135;SDS011;63707;52.212;9.540;2023-05-10T04:32:43;14.05;;;6.38;;
75135;SDS011;63707;52.212;9.540;2023-05-10T04:35:10;9.25;;;6.13;;
75135;SDS011;63707;52.212;9.540;2023-05-10T04:37:35;10.57;;;6.30;;
75135;SDS011;63707;52.212;9.540;2023-05-10T04:40:01;11.48;;;6.80;;
75135;SDS011;63707;52.212;9.540;2023-05-10T04:42:28;14.60;;;7.45;;
75135;SDS011;63707;52.212;9.540;2023-05-10T04:44:54;11.20;;;7.57;;
75135;SDS011;63707;52.212;9.540;2023-05-10T04:47:19;12.25;;;7.55;;
75135;SDS011;63707;52.212;9.540;2023-05-10T04:49:45;14.63;;;7.38;;
75135;SDS011;63707;52.212;9.540;2023-05-10T04:52:12;12.23;;;8.10;;
75135;SDS011;63707;52.212;9.540;2023-05-10T04:54:37;11.93;;;8.63;;
75135;SDS011;63707;52.212;9.540;2023-05-10T04:57:03;11.07;;;6.85;;
75135;SDS011;63707;52.212;9.540;2023-05-10T04:59:28;11.07;;;6.85;;
75135;SDS011;63707;52.212;9.540;2023-05-10T05:01:54;9.00;;;6.55;;
75135;SDS011;63707;52.212;9.540;2023-05-10T05:04:19;10.00;;;6.20;;
75135;SDS011;63707;52.212;9.540;2023-05-10T05:06:45;12.40;;;6.88;;
75135;SDS011;63707;52.212;9.540;2023-05-10T05:09:11;9.93;;;7.03;;
75135;SDS011;63707;52.212;9.540;2023-05-10T05:11:37;13.93;;;7.47;;
75135;SDS011;63707;52.212;9.540;2023-05-10T05:14:03;12.05;;;6.95;;
75135;SDS011;63707;52.212;9.540;2023-05-10T05:16:30;13.52;;;8.60;;
75135;SDS011;63707;52.212;9.540;2023-05-10T05:18:56;16.15;;;8.73;;
75135;SDS011;63707;52.212;9.540;2023-05-10T05:21:21;13.52;;;8.43;;
75135;SDS011;63707;52.212;9.540;2023-05-10T05:23:47;13.85;;;7.97;;
75135;SDS011;63707;52.212;9.540;2023-05-10T05:26:14;13.43;;;7.95;;
75135;SDS011;63707;52.212;9.540;2023-05-10T05:28:40;12.82;;;8.48;;
75135;SDS011;63707;52.212;9.540;2023-05-10T05:31:05;13.23;;;8.20;;
75135;SDS011;63707;52.212;9.540;2023-05-10T05:33:32;13.27;;;8.20;;
75135;SDS011;63707;52.212;9.540;2023-05-10T05:36:00;12.02;;;8.05;;
75135;SDS011;63707;52.212;9.540;2023-05-10T05:38:25;12.32;;;8.68;;
75135;SDS011;63707;52.212;9.540;2023-05-10T05:40:51;13.50;;;8.65;;
75135;SDS011;63707;52.212;9.540;2023-05-10T05:43:18;13.32;;;8.18;;
75135;SDS011;63707;52.212;9.540;2023-05-10T05:45:43;12.98;;;7.88;;
75135;SDS011;63707;52.212;9.540;2023-05-10T05:48:09;12.68;;;8.10;;
75135;SDS011;63707;52.212;9.540;2023-05-10T05:50:34;12.52;;;8.20;;
75135;SDS011;63707;52.212;9.540;2023-05-10T05:53:00;12.73;;;7.95;;
75135;SDS011;63707;52.212;9.540;2023-05-10T05:55:25;12.90;;;8.30;;
75135;SDS011;63707;52.212;9.540;2023-05-10T05:57:51;11.05;;;7.75;;
75135;SDS011;63707;52.212;9.540;2023-05-10T06:00:18;13.50;;;8.40;;
75135;SDS011;63707;52.212;9.540;2023-05-10T06:02:43;14.60;;;9.00;;
75135;SDS011;63707;52.212;9.540;2023-05-10T06:05:09;11.93;;;8.07;;
75135;SDS011;63707;52.212;9.540;2023-05-10T06:07:35;11.05;;;7.65;;
75135;SDS011;63707;52.212;9.540;2023-05-10T06:10:00;10.98;;;7.90;;
75135;SDS011;63707;52.212;9.540;2023-05-10T06:12:26;14.90;;;8.30;;
75135;SDS011;63707;52.212;9.540;2023-05-10T06:14:51;13.10;;;8.10;;
75135;SDS011;63707;52.212;9.540;2023-05-10T06:17:18;12.93;;;8.30;;
75135;SDS011;63707;52.212;9.540;2023-05-10T06:19:44;12.55;;;8.30;;
75135;SDS011;63707;52.212;9.540;2023-05-10T06:22:09;12.43;;;8.13;;
75135;SDS011;63707;52.212;9.540;2023-05-10T06:24:35;16.05;;;9.13;;
75135;SDS011;63707;52.212;9.540;2023-05-10T06:27:00;12.18;;;8.20;;
75135;SDS011;63707;52.212;9.540;2023-05-10T06:29:27;14.70;;;7.50;;
75135;SDS011;63707;52.212;9.540;2023-05-10T06:31:52;11.38;;;8.10;;
75135;SDS011;63707;52.212;9.540;2023-05-10T06:34:20;12.55;;;8.27;;
75135;SDS011;63707;52.212;9.540;2023-05-10T06:36:45;13.38;;;8.15;;
75135;SDS011;63707;52.212;9.540;2023-05-10T06:39:11;15.65;;;8.52;;
75135;SDS011;63707;52.212;9.540;2023-05-10T06:41:37;13.20;;;9.23;;
75135;SDS011;63707;52.212;9.540;2023-05-10T06:44:02;15.38;;;9.20;;
75135;SDS011;63707;52.212;9.540;2023-05-10T06:46:28;14.20;;;9.23;;
75135;SDS011;63707;52.212;9.540;2023-05-10T06:48:54;13.02;;;8.73;;
75135;SDS011;63707;52.212;9.540;2023-05-10T06:51:21;14.05;;;9.38;;
75135;SDS011;63707;52.212;9.540;2023-05-10T06:53:46;14.90;;;9.75;;
75135;SDS011;63707;52.212;9.540;2023-05-10T06:56:12;13.73;;;8.82;;
75135;SDS011;63707;52.212;9.540;2023-05-10T06:58:37;13.80;;;8.57;;
75135;SDS011;63707;52.212;9.540;2023-05-10T07:01:03;12.95;;;8.88;;
75135;SDS011;63707;52.212;9.540;2023-05-10T07:03:30;13.98;;;8.82;;
75135;SDS011;63707;52.212;9.540;2023-05-10T07:05:59;14.48;;;9.02;;
75135;SDS011;63707;52.212;9.540;2023-05-10T07:08:27;15.65;;;10.13;;
75135;SDS011;63707;52.212;9.540;2023-05-10T07:10:53;15.63;;;10.00;;
75135;SDS011;63707;52.212;9.540;2023-05-10T07:13:25;14.65;;;9.65;;
75135;SDS011;63707;52.212;9.540;2023-05-10T07:15:50;16.17;;;9.63;;
75135;SDS011;63707;52.212;9.540;2023-05-10T07:18:16;14.20;;;9.25;;
75135;SDS011;63707;52.212;9.540;2023-05-10T07:20:41;10.40;;;7.97;;
75135;SDS011;63707;52.212;9.540;2023-05-10T07:23:07;10.38;;;7.55;;
75135;SDS011;63707;52.212;9.540;2023-05-10T07:25:34;9.38;;;6.63;;
75135;SDS011;63707;52.212;9.540;2023-05-10T07:27:59;8.32;;;6.43;;
75135;SDS011;63707;52.212;9.540;2023-05-10T07:30:25;10.63;;;6.80;;
75135;SDS011;63707;52.212;9.540;2023-05-10T07:32:50;8.02;;;5.47;;
75135;SDS011;63707;52.212;9.540;2023-05-10T07:35:16;4.50;;;3.65;;
75135;SDS011;63707;52.212;9.540;2023-05-10T07:37:41;6.70;;;4.00;;
75135;SDS011;63707;52.212;9.540;2023-05-10T07:40:08;3.33;;;2.67;;
75135;SDS011;63707;52.212;9.540;2023-05-10T07:42:35;4.50;;;2.55;;
75135;SDS011;63707;52.212;9.540;2023-05-10T07:45:01;2.63;;;1.63;;
75135;SDS011;63707;52.212;9.540;2023-05-10T07:47:26;3.03;;;1.50;;
75135;SDS011;63707;52.212;9.540;2023-05-10T07:49:52;2.75;;;1.45;;
75135;SDS011;63707;52.212;9.540;2023-05-10T07:52:17;1.88;;;0.98;;
75135;SDS011;63707;52.212;9.540;2023-05-10T07:54:43;1.38;;;1.10;;
75135;SDS011;63707;52.212;9.540;2023-05-10T07:57:09;0.77;;;0.70;;
75135;SDS011;63707;52.212;9.540;2023-05-10T07:59:36;3.70;;;1.05;;
75135;SDS011;63707;52.212;9.540;2023-05-10T08:02:01;1.35;;;0.95;;
75135;SDS011;63707;52.212;9.540;2023-05-10T08:04:27;1.90;;;0.70;;
75135;SDS011;63707;52.212;9.540;2023-05-10T08:06:52;1.52;;;0.68;;
75135;SDS011;63707;52.212;9.540;2023-05-10T08:09:18;1.13;;;0.70;;
75135;SDS011;63707;52.212;9.540;2023-05-10T08:11:48;1.23;;;0.73;;
75135;SDS011;63707;52.212;9.540;2023-05-10T08:14:14;0.77;;;0.77;;
75135;SDS011;63707;52.212;9.540;2023-05-10T08:16:40;1.05;;;0.70;;
75135;SDS011;63707;52.212;9.540;2023-05-10T08:19:06;2.40;;;1.30;;
75135;SDS011;63707;52.212;9.540;2023-05-10T08:21:31;2.05;;;0.93;;
75135;SDS011;63707;52.212;9.540;2023-05-10T08:23:57;1.10;;;0.82;;
75135;SDS011;63707;52.212;9.540;2023-05-10T08:26:22;1.00;;;0.90;;
75135;SDS011;63707;52.212;9.540;2023-05-10T08:28:48;1.17;;;1.08;;
75135;SDS011;63707;52.212;9.540;2023-05-10T08:31:13;1.30;;;0.95;;
75135;SDS011;63707;52.212;9.540;2023-05-10T08:33:41;1.52;;;1.00;;
75135;SDS011;63707;52.212;9.540;2023-05-10T08:36:06;1.05;;;0.95;;
75135;SDS011;63707;52.212;9.540;2023-05-10T08:38:32;1.67;;;0.95;;
75135;SDS011;63707;52.212;9.540;2023-05-10T08:40:57;1.92;;;1.00;;
75135;SDS011;63707;52.212;9.540;2023-05-10T08:43:25;1.10;;;0.93;;
75135;SDS011;63707;52.212;9.540;2023-05-10T08:45:55;1.95;;;1.33;;
75135;SDS011;63707;52.212;9.540;2023-05-10T08:48:24;2.17;;;0.90;;
75135;SDS011;63707;52.212;9.540;2023-05-10T08:50:53;2.97;;;1.10;;
75135;SDS011;63707;52.212;9.540;2023-05-10T08:53:21;3.78;;;1.50;;
75135;SDS011;63707;52.212;9.540;2023-05-10T08:55:50;1.58;;;1.23;;
75135;SDS011;63707;52.212;9.540;2023-05-10T08:58:15;1.67;;;1.20;;
75135;SDS011;63707;52.212;9.540;2023-05-10T09:00:41;3.22;;;1.45;;
75135;SDS011;63707;52.212;9.540;2023-05-10T09:03:07;1.40;;;1.10;;
75135;SDS011;63707;52.212;9.540;2023-05-10T09:05:34;2.25;;;1.27;;
75135;SDS011;63707;52.212;9.540;2023-05-10T09:08:03;2.63;;;1.40;;
75135;SDS011;63707;52.212;9.540;2023-05-10T09:10:29;1.30;;;1.20;;
75135;SDS011;63707;52.212;9.540;2023-05-10T09:12:56;2.97;;;1.30;;
75135;SDS011;63707;52.212;9.540;2023-05-10T09:15:22;1.52;;;1.20;;
75135;SDS011;63707;52.212;9.540;2023-05-10T09:17:48;2.13;;;1.50;;
75135;SDS011;63707;52.212;9.540;2023-05-10T09:20:14;2.38;;;1.55;;
75135;SDS011;63707;52.212;9.540;2023-05-10T09:22:42;3.15;;;1.60;;
75135;SDS011;63707;52.212;9.540;2023-05-10T09:25:10;4.93;;;1.98;;
75135;SDS011;63707;52.212;9.540;2023-05-10T09:27:36;3.20;;;1.58;;
75135;SDS011;63707;52.212;9.540;2023-05-10T09:30:03;2.58;;;2.05;;
75135;SDS011;63707;52.212;9.540;2023-05-10T09:32:37;3.42;;;2.72;;
75135;SDS011;63707;52.212;9.540;2023-05-10T09:35:07;3.70;;;2.65;;
75135;SDS011;63707;52.212;9.540;2023-05-10T09:37:34;4.03;;;2.65;;
75135;SDS011;63707;52.212;9.540;2023-05-10T09:39:59;2.78;;;2.47;;
75135;SDS011;63707;52.212;9.540;2023-05-10T09:42:26;5.32;;;2.72;;
75135;SDS011;63707;52.212;9.540;2023-05-10T09:44:52;3.47;;;3.00;;
75135;SDS011;63707;52.212;9.540;2023-05-10T09:47:17;3.70;;;3.13;;
75135;SDS011;63707;52.212;9.540;2023-05-10T09:49:48;5.35;;;3.53;;
75135;SDS011;63707;52.212;9.540;2023-05-10T09:52:15;5.43;;;3.95;;
75135;SDS011;63707;52.212;9.540;2023-05-10T09:54:42;5.60;;;3.10;;
75135;SDS011;63707;52.212;9.540;2023-05-10T09:57:18;5.07;;;3.40;;
75135;SDS011;63707;52.212;9.540;2023-05-10T09:59:47;6.50;;;3.60;;
75135;SDS011;63707;52.212;9.540;2023-05-10T10:02:13;7.03;;;4.03;;
75135;SDS011;63707;52.212;9.540;2023-05-10T10:04:39;4.63;;;3.65;;
75135;SDS011;63707;52.212;9.540;2023-05-10T10:07:04;4.68;;;3.97;;
75135;SDS011;63707;52.212;9.540;2023-05-10T10:09:30;6.05;;;4.35;;
75135;SDS011;63707;52.212;9.540;2023-05-10T10:11:57;5.05;;;3.90;;
75135;SDS011;63707;52.212;9.540;2023-05-10T10:14:23;7.18;;;3.95;;
75135;SDS011;63707;52.212;9.540;2023-05-10T10:16:50;5.63;;;3.85;;
75135;SDS011;63707;52.212;9.540;2023-05-10T10:19:16;4.80;;;3.50;;
75135;SDS011;63707;52.212;9.540;2023-05-10T10:21:43;6.55;;;3.47;;
75135;SDS011;63707;52.212;9.540;2023-05-10T10:24:08;7.40;;;3.65;;
75135;SDS011;63707;52.212;9.540;2023-05-10T10:26:33;6.05;;;4.10;;
75135;SDS011;63707;52.212;9.540;2023-05-10T10:29:04;5.20;;;3.83;;
75135;SDS011;63707;52.212;9.540;2023-05-10T10:31:40;6.20;;;3.95;;
75135;SDS011;63707;52.212;9.540;2023-05-10T10:34:16;6.88;;;4.30;;
75135;SDS011;63707;52.212;9.540;2023-05-10T10:36:50;7.57;;;4.70;;
75135;SDS011;63707;52.212;9.540;2023-05-10T10:39:15;10.07;;;4.60;;
75135;SDS011;63707;52.212;9.540;2023-05-10T10:41:48;7.20;;;4.03;;
75135;SDS011;63707;52.212;9.540;2023-05-10T10:44:25;7.63;;;4.68;;
75135;SDS011;63707;52.212;9.540;2023-05-10T10:47:06;8.35;;;4.97;;
75135;SDS011;63707;52.212;9.540;2023-05-10T10:49:38;7.68;;;4.40;;
75135;SDS011;63707;52.212;9.540;2023-05-10T10:52:15;6.38;;;4.20;;
75135;SDS011;63707;52.212;9.540;2023-05-10T10:54:49;7.38;;;4.10;;
75135;SDS011;63707;52.212;9.540;2023-05-10T10:57:17;7.25;;;3.92;;
75135;SDS011;63707;52.212;9.540;2023-05-10T10:59:44;6.32;;;4.18;;
75135;SDS011;63707;52.212;9.540;2023-05-10T11:02:10;11.95;;;4.20;;
75135;SDS011;63707;52.212;9.540;2023-05-10T11:05:00;7.53;;;3.88;;
75135;SDS011;63707;52.212;9.540;2023-05-10T11:07:51;5.65;;;3.25;;
75135;SDS011;63707;52.212;9.540;2023-05-10T11:10:18;6.95;;;4.03;;
75135;SDS011;63707;52.212;9.540;2023-05-10T11:12:52;8.02;;;3.60;;
75135;SDS011;63707;52.212;9.540;2023-05-10T11:15:19;6.72;;;3.72;;
75135;SDS011;63707;52.212;9.540;2023-05-10T11:17:44;6.18;;;4.20;;
75135;SDS011;63707;52.212;9.540;2023-05-10T11:20:14;7.10;;;4.07;;
75135;SDS011;63707;52.212;9.540;2023-05-10T11:22:50;5.82;;;3.83;;
75135;SDS011;63707;52.212;9.540;2023-05-10T11:25:16;7.15;;;3.80;;
75135;SDS011;63707;52.212;9.540;2023-05-10T11:27:42;7.88;;;4.78;;
75135;SDS011;63707;52.212;9.540;2023-05-10T11:30:08;8.93;;;4.40;;
75135;SDS011;63707;52.212;9.540;2023-05-10T11:32:36;6.55;;;4.05;;
75135;SDS011;63707;52.212;9.540;2023-05-10T11:35:06;6.22;;;4.55;;
75135;SDS011;63707;52.212;9.540;2023-05-10T11:37:33;6.78;;;4.15;;
75135;SDS011;63707;52.212;9.540;2023-05-10T11:39:59;8.38;;;4.28;;
75135;SDS011;63707;52.212;9.540;2023-05-10T11:42:25;7.20;;;4.20;;
75135;SDS011;63707;52.212;9.540;2023-05-10T11:44:50;8.25;;;4.30;;
75135;SDS011;63707;52.212;9.540;2023-05-10T11:47:16;6.47;;;3.70;;
75135;SDS011;63707;52.212;9.540;2023-05-10T11:49:43;6.50;;;2.60;;
75135;SDS011;63707;52.212;9.540;2023-05-10T11:52:09;4.10;;;3.00;;
75135;SDS011;63707;52.212;9.540;2023-05-10T11:54:37;3.58;;;2.42;;
75135;SDS011;63707;52.212;9.540;2023-05-10T11:57:09;6.45;;;3.50;;
75135;SDS011;63707;52.212;9.540;2023-05-10T11:59:35;4.78;;;3.20;;
75135;SDS011;63707;52.212;9.540;2023-05-10T12:02:01;6.72;;;3.58;;
75135;SDS011;63707;52.212;9.540;2023-05-10T12:04:28;5.82;;;3.80;;
75135;SDS011;63707;52.212;9.540;2023-05-10T12:06:54;8.55;;;5.05;;
75135;SDS011;63707;52.212;9.540;2023-05-10T12:09:20;8.23;;;4.93;;
75135;SDS011;63707;52.212;9.540;2023-05-10T12:11:47;6.88;;;4.50;;
75135;SDS011;63707;52.212;9.540;2023-05-10T12:14:12;6.78;;;4.20;;
75135;SDS011;63707;52.212;9.540;2023-05-10T12:16:38;8.02;;;4.55;;
75135;SDS011;63707;52.212;9.540;2023-05-10T12:19:03;9.32;;;4.50;;
75135;SDS011;63707;52.212;9.540;2023-05-10T12:21:30;8.30;;;4.18;;
75135;SDS011;63707;52.212;9.540;2023-05-10T12:23:58;7.22;;;4.22;;
75135;SDS011;63707;52.212;9.540;2023-05-10T12:26:26;8.70;;;4.55;;
75135;SDS011;63707;52.212;9.540;2023-05-10T12:28:54;8.65;;;4.90;;
75135;SDS011;63707;52.212;9.540;2023-05-10T12:31:20;6.75;;;4.28;;
75135;SDS011;63707;52.212;9.540;2023-05-10T12:33:46;7.47;;;5.10;;
75135;SDS011;63707;52.212;9.540;2023-05-10T12:36:14;8.57;;;5.15;;
75135;SDS011;63707;52.212;9.540;2023-05-10T12:38:41;9.38;;;5.18;;
75135;SDS011;63707;52.212;9.540;2023-05-10T12:41:14;8.73;;;4.72;;
75135;SDS011;63707;52.212;9.540;2023-05-10T12:43:41;9.43;;;4.60;;
75135;SDS011;63707;52.212;9.540;2023-05-10T12:46:09;7.15;;;3.88;;
75135;SDS011;63707;52.212;9.540;2023-05-10T12:48:37;7.97;;;4.70;;
75135;SDS011;63707;52.212;9.540;2023-05-10T12:51:03;8.05;;;4.28;;
75135;SDS011;63707;52.212;9.540;2023-05-10T12:53:29;6.57;;;4.03;;
75135;SDS011;63707;52.212;9.540;2023-05-10T12:55:55;7.00;;;3.97;;
75135;SDS011;63707;52.212;9.540;2023-05-10T12:58:21;5.70;;;3.58;;
75135;SDS011;63707;52.212;9.540;2023-05-10T13:00:46;9.45;;;3.97;;
75135;SDS011;63707;52.212;9.540;2023-05-10T13:03:13;5.20;;;3.72;;
75135;SDS011;63707;52.212;9.540;2023-05-10T13:05:40;8.48;;;4.20;;
75135;SDS011;63707;52.212;9.540;2023-05-10T13:08:06;6.47;;;3.53;;
75135;SDS011;63707;52.212;9.540;2023-05-10T13:10:31;5.85;;;3.92;;
75135;SDS011;63707;52.212;9.540;2023-05-10T13:12:57;8.80;;;4.28;;
75135;SDS011;63707;52.212;9.540;2023-05-10T13:15:23;7.72;;;4.28;;
75135;SDS011;63707;52.212;9.540;2023-05-10T13:17:48;5.78;;;3.78;;
75135;SDS011;63707;52.212;9.540;2023-05-10T13:20:15;6.93;;;3.95;;
75135;SDS011;63707;52.212;9.540;2023-05-10T13:22:41;6.60;;;3.75;;
75135;SDS011;63707;52.212;9.540;2023-05-10T13:25:08;8.25;;;4.20;;
75135;SDS011;63707;52.212;9.540;2023-05-10T13:27:34;10.90;;;4.60;;
75135;SDS011;63707;52.212;9.540;2023-05-10T13:29:59;7.03;;;3.85;;
75135;SDS011;63707;52.212;9.540;2023-05-10T13:32:28;6.82;;;4.05;;
75135;SDS011;63707;52.212;9.540;2023-05-10T13:34:54;7.60;;;4.22;;
75135;SDS011;63707;52.212;9.540;2023-05-10T13:37:21;5.85;;;3.90;;
75135;SDS011;63707;52.212;9.540;2023-05-10T13:39:47;7.70;;;4.05;;
75135;SDS011;63707;52.212;9.540;2023-05-10T13:42:13;5.70;;;3.95;;
75135;SDS011;63707;52.212;9.540;2023-05-10T13:44:38;6.78;;;3.92;;
75135;SDS011;63707;52.212;9.540;2023-05-10T13:47:05;7.32;;;3.75;;
75135;SDS011;63707;52.212;9.540;2023-05-10T13:49:30;7.80;;;3.70;;
75135;SDS011;63707;52.212;9.540;2023-05-10T13:51:56;6.25;;;4.00;;
75135;SDS011;63707;52.212;9.540;2023-05-10T13:54:23;5.22;;;3.83;;
75135;SDS011;63707;52.212;9.540;2023-05-10T13:56:49;7.53;;;3.78;;
75135;SDS011;63707;52.212;9.540;2023-05-10T13:59:14;7.07;;;4.10;;
75135;SDS011;63707;52.212;9.540;2023-05-10T14:01:40;6.15;;;3.85;;
75135;SDS011;63707;52.212;9.540;2023-05-10T14:04:06;6.13;;;4.05;;
75135;SDS011;63707;52.212;9.540;2023-05-10T14:06:35;6.10;;;3.65;;
75135;SDS011;63707;52.212;9.540;2023-05-10T14:09:00;7.35;;;3.63;;
75135;SDS011;63707;52.212;9.540;2023-05-10T14:11:27;7.95;;;3.47;;
75135;SDS011;63707;52.212;9.540;2023-05-10T14:13:55;4.80;;;3.58;;
75135;SDS011;63707;52.212;9.540;2023-05-10T14:16:21;5.93;;;3.78;;
75135;SDS011;63707;52.212;9.540;2023-05-10T14:18:47;6.30;;;3.85;;
75135;SDS011;63707;52.212;9.540;2023-05-10T14:21:12;7.18;;;3.47;;
75135;SDS011;63707;52.212;9.540;2023-05-10T14:23:38;6.43;;;3.75;;
75135;SDS011;63707;52.212;9.540;2023-05-10T14:26:04;7.90;;;4.10;;
75135;SDS011;63707;52.212;9.540;2023-05-10T14:28:31;6.15;;;3.60;;
75135;SDS011;63707;52.212;9.540;2023-05-10T14:30:56;7.93;;;3.97;;
75135;SDS011;63707;52.212;9.540;2023-05-10T14:33:22;7.80;;;3.83;;
75135;SDS011;63707;52.212;9.540;2023-05-10T14:35:47;6.90;;;3.63;;
75135;SDS011;63707;52.212;9.540;2023-05-10T14:38:13;8.07;;;4.43;;
75135;SDS011;63707;52.212;9.540;2023-05-10T14:40:38;9.00;;;3.80;;
75135;SDS011;63707;52.212;9.540;2023-05-10T14:43:04;7.90;;;3.63;;
75135;SDS011;63707;52.212;9.540;2023-05-10T14:45:31;6.82;;;3.83;;